Pasadena 2N

39° 08' 31"N, 76° 30' 27"W, Elevation 43 ft.
Eastern Time

Hourly observations for the last 72 hours

Date Time Temperature (°F) Humi-
dity

(%)
Wind
(mph)
Pressure Rain (in) Sun
(W/m2)
ET
(in)
Air Dew 6 Hour 1 Hr 3 Hr 6 Hr Day
Alt
(in)
Sea
Level

(mb)
Max Min
18 13:00 91.7 80.5 70 E 1 G 7 29.98 1015.1 0.00 826 0.025
18 12:00 87.6 80.7 80 ENE 1 G 5 29.98 1015.2 0.00 204 0.008
18 11:00 85.2 79.5 83 NE 1 G 5 29.99 1015.4 0.00 654 0.004
18 10:00 81.7 77.5 87 W 0 G 4 29.98 1015.1 0.00 62 0.002
18 09:00 77.5 76.0 95 SSW 0 G 4 29.98 1015.1 0.00 51 0.001
18 08:00 75.5 74.6 75.5 73.6 97 S 0 G 1 29.99 1015.5 0.00 42 0.000
18 07:00 73.7 72.5 96 Calm 29.98 1015.2 0.00 9 0.000
18 06:00 74.2 73.0 96 Calm 29.96 1014.7 0.00 0 0.000
18 05:00 74.8 73.6 96 S 0 G 2 29.94 1014.0 0.00 0 0.000
18 04:00 74.7 73.5 96 Calm 29.94 1014.0 0.00 0 0.000
18 03:00 74.4 73.2 96 S 0 G 2 29.94 1014.1 0.00 0 0.000
18 02:00 75.0 73.8 77.3 74.8 96 Calm 29.94 1013.8 0.00 0 0.000
18 01:00 75.5 74.0 95 Calm 29.94 1013.9 0.00 0 0.000
18 00:00 75.1 73.6 95 Calm 29.94 1013.9 0.46 0 0.111
17 23:00 75.3 73.8 95 Calm 29.94 1014.0 0.46 0 0.111
17 22:00 75.3 73.5 94 Calm 29.95 1014.4 0.46 0 0.111
17 21:00 75.6 73.4 93 Calm 29.94 1013.9 0.46 0 0.111
17 20:00 77.3 74.8 90.9 71.0 92 Calm 29.94 1013.8 0.46 0.46 0 0.110
17 19:00 78.9 75.4 89 S 0 G 1 29.92 1013.4 0.46 37 0.108
17 18:00 82.6 76.6 82 SSW 1 G 4 29.92 1013.3 0.46 227 0.098
17 17:00 77.3 74.5 91 SE 1 G 6 29.92 1013.2 0.46 0.46 497 0.089
17 16:00 71.2 67.8 89 W 1 G 10 29.94 1014.1 0.46 0.46 137 0.086
17 15:00 88.6 77.6 70 SSE 2 G 8 29.94 1014.1 0.00 295 0.072
17 14:00 89.9 79.7 90.1 76.6 72 E 3 G 7 29.96 1014.6 0.00 865 0.052
17 13:00 88.2 78.5 73 ESE 2 G 9 29.97 1015.1 0.00 872 0.031
17 12:00 86.4 79.1 79 SE 2 G 7 29.99 1015.6 0.00 809 0.013
17 11:00 81.7 77.5 87 ESE 0 G 4 30.00 1015.8 0.00 186 0.007
17 10:00 78.8 76.3 92 E 1 G 4 29.99 1015.5 0.00 276 0.003
17 09:00 77.8 75.9 94 E 2 G 5 29.98 1015.2 0.00 179 0.001
17 08:00 76.6 75.4 76.6 72.3 96 NE 1 G 5 29.96 1014.6 0.00 84 0.000
17 07:00 74.0 72.8 96 E 0 G 1 29.95 1014.4 0.00 23 0.000
17 06:00 73.9 72.4 95 Calm 29.95 1014.3 0.00 0 0.000
17 05:00 73.0 71.5 95 Calm 29.95 1014.4 0.00 0 0.000
17 04:00 72.6 70.8 94 Calm 29.95 1014.4 0.00 0 0.000
17 03:00 73.6 71.8 94 Calm 29.96 1014.7 0.00 0 0.000
17 02:00 74.5 72.7 82.1 74.5 94 Calm 29.96 1014.5 0.00 0 0.000
17 01:00 75.2 72.7 92 E 0 G 1 29.96 1014.6 0.00 0 0.000
17 00:00 75.9 73.7 93 E 0 G 2 29.96 1014.6 0.00 0 0.126
16 23:00 76.3 73.8 92 Calm 29.96 1014.7 0.00 0 0.126
16 22:00 77.4 73.9 89 Calm 29.96 1014.6 0.00 0 0.125
16 21:00 79.1 74.6 86 E 0 G 2 29.94 1014.0 0.00 0 0.125
16 20:00 82.1 74.9 89.5 82.0 79 E 1 G 7 29.92 1013.4 0.00 0 0.124
16 19:00 84.7 74.7 72 ENE 0 G 3 29.92 1013.4 0.00 53 0.121
16 18:00 88.3 74.6 64 SE 1 G 6 29.93 1013.7 0.00 174 0.112
16 17:00 89.4 75.2 63 SE 1 G 6 29.93 1013.7 0.00 415 0.101
16 16:00 87.1 74.8 67 ENE 0 G 3 29.95 1014.2 0.00 248 0.091
16 15:00 87.6 74.4 65 ENE 4 G 7 29.96 1014.7 0.00 380 0.072
16 14:00 86.6 74.8 86.6 74.3 68 NE 3 G 7 29.98 1015.2 0.00 773 0.051
16 13:00 84.9 75.3 73 NE 3 G 6 29.98 1015.2 0.00 232 0.031
16 12:00 83.1 75.1 77 E 0 G 8 30.00 1015.9 0.00 779 0.017
16 11:00 80.2 74.9 84 NE 0 G 6 30.00 1015.8 0.00 418 0.010
16 10:00 79.6 75.0 86 ENE 4 G 7 29.99 1015.6 0.00 283 0.004
16 09:00 77.2 74.0 90 E 1 G 5 29.97 1015.0 0.00 200 0.001
16 08:00 74.3 72.5 74.4 69.5 94 NE 2 G 4 29.98 1015.2 0.00 53 0.000
16 07:00 72.9 71.4 95 E 1 G 6 29.98 1015.1 0.00 23 0.000
16 06:00 72.2 70.7 95 ENE 0 G 2 29.96 1014.5 0.00 0 0.000
16 05:00 70.6 69.1 95 SE 0 G 2 29.95 1014.4 0.00 0 0.000
16 04:00 69.7 67.9 94 Calm 29.94 1014.0 0.00 0 0.000
16 03:00 70.1 68.3 94 Calm 29.96 1014.5 0.00 0 0.000
16 02:00 70.4 68.3 78.5 70.4 93 Calm 29.96 1014.7 0.00 0 0.000
16 01:00 71.3 68.9 92 Calm 29.96 1014.6 0.00 0 0.000
16 00:00 72.8 69.7 90 SE 0 G 2 29.97 1015.0 0.00 0 0.098
15 23:00 74.9 70.8 87 SE 0 G 2 29.96 1014.7 0.00 0 0.097
15 22:00 76.4 71.2 84 NE 1 G 3 29.95 1014.3 0.00 0 0.096
15 21:00 77.3 71.4 82 E 2 G 8 29.93 1013.7 0.00 0 0.096
15 20:00 78.5 71.8 85.5 78.5 80 E 2 G 6 29.91 1012.9 0.00 0 0.095
15 19:00 81.2 73.7 78 E 1 G 8 29.91 1013.0 0.00 76 0.093
15 18:00 81.0 74.3 80 SE 0 G 1 29.92 1013.4 0.00 90 0.091
15 17:00 81.6 72.9 75 SE 0 G 5 29.91 1012.8 0.00 44 0.087
15 16:00 85.1 74.2 70 NNE 3 G 8 29.91 1012.9 0.00 299 0.073
15 15:00 84.3 73.9 71 SSE 1 G 9 29.93 1013.4 0.00 819 0.055
15 14:00 83.1 74.0 83.1 73.8 74 NE 3 G 10 29.95 1014.4 0.00 854 0.041

Data generated by WxSolution Version 1.9.1.6, Build 2018.07.01.